createdAt,value
2024-01-20T00:00:31.161Z,9.40
2024-01-20T00:02:58.824Z,9.00
2024-01-20T00:05:26.535Z,8.80
2024-01-20T00:07:54.370Z,6.70
2024-01-20T00:10:22.027Z,8.30
2024-01-20T00:12:49.571Z,8.30
2024-01-20T00:15:17.136Z,7.50
2024-01-20T00:17:46.930Z,9.70
2024-01-20T00:20:15.132Z,7.70
2024-01-20T00:22:43.333Z,7.10
2024-01-20T00:25:11.530Z,8.50
2024-01-20T00:27:39.470Z,10.60
2024-01-20T00:30:07.515Z,15.10
2024-01-20T00:32:35.432Z,11.20
2024-01-20T00:35:07.298Z,8.50
2024-01-20T00:37:36.594Z,8.50
2024-01-20T00:40:04.448Z,6.20
2024-01-20T00:42:31.979Z,6.30
2024-01-20T00:45:00.073Z,8.80
2024-01-20T00:47:27.765Z,8.70
2024-01-20T00:49:55.588Z,7.20
2024-01-20T00:52:23.320Z,5.90
2024-01-20T00:54:50.897Z,5.90
2024-01-20T00:57:18.480Z,5.60
2024-01-20T00:59:46.111Z,5.70
2024-01-20T01:02:14.199Z,6.30
2024-01-20T01:04:41.981Z,7.10
2024-01-20T01:07:09.815Z,7.50
2024-01-20T01:09:37.483Z,6.00
2024-01-20T01:12:04.827Z,6.60
2024-01-20T01:14:32.508Z,5.90
2024-01-20T01:17:00.079Z,7.60
2024-01-20T01:19:27.706Z,7.00
2024-01-20T01:21:55.273Z,7.70
2024-01-20T01:24:22.928Z,7.30
2024-01-20T01:26:50.534Z,7.70
2024-01-20T01:29:18.770Z,6.70
2024-01-20T01:31:46.505Z,6.50
2024-01-20T01:34:14.270Z,4.20
2024-01-20T01:36:41.967Z,5.70
2024-01-20T01:39:09.514Z,3.40
2024-01-20T01:41:37.177Z,4.90
2024-01-20T01:44:04.753Z,4.10
2024-01-20T01:46:32.324Z,4.10
2024-01-20T01:49:00.048Z,2.80
2024-01-20T01:51:27.918Z,3.90
2024-01-20T01:53:55.511Z,5.90
2024-01-20T01:56:23.154Z,4.60
2024-01-20T01:58:50.697Z,3.50
2024-01-20T02:01:18.430Z,6.70
2024-01-20T02:03:46.267Z,6.20
2024-01-20T02:06:14.122Z,5.30
2024-01-20T02:08:41.857Z,5.20
2024-01-20T02:11:10.329Z,6.40
2024-01-20T02:13:37.899Z,3.40
2024-01-20T02:16:05.765Z,3.00
2024-01-20T02:18:33.500Z,5.70
2024-01-20T02:21:01.228Z,4.90
2024-01-20T02:23:28.844Z,3.90
2024-01-20T02:25:56.502Z,3.80
2024-01-20T02:28:24.069Z,4.10
2024-01-20T02:30:51.625Z,3.20
2024-01-20T02:33:19.260Z,5.20
2024-01-20T02:35:46.951Z,6.30
2024-01-20T02:38:14.504Z,6.30
2024-01-20T02:40:42.062Z,5.50
2024-01-20T02:43:09.622Z,5.10
2024-01-20T02:45:37.261Z,5.80
2024-01-20T02:48:04.955Z,6.30
2024-01-20T02:50:32.832Z,4.70
2024-01-20T02:53:00.577Z,6.30
2024-01-20T02:55:28.144Z,5.80
2024-01-20T02:57:55.708Z,6.00
2024-01-20T03:00:23.443Z,6.00
2024-01-20T03:02:51.175Z,5.50
2024-01-20T03:05:18.957Z,5.80
2024-01-20T03:07:46.682Z,5.00
2024-01-20T03:10:14.327Z,5.40
2024-01-20T03:12:41.917Z,4.50
2024-01-20T03:15:09.703Z,5.20
2024-01-20T03:17:37.328Z,6.30
2024-01-20T03:20:04.996Z,5.20
2024-01-20T03:22:32.645Z,4.60
2024-01-20T03:25:00.328Z,5.50
2024-01-20T03:27:27.893Z,5.30
2024-01-20T03:29:55.652Z,5.80
2024-01-20T03:32:23.725Z,6.00
2024-01-20T03:34:51.424Z,4.80
2024-01-20T03:37:19.121Z,3.60
2024-01-20T03:39:46.674Z,5.70
2024-01-20T03:42:14.146Z,5.60
2024-01-20T03:44:41.694Z,4.70
2024-01-20T03:47:09.261Z,4.90
2024-01-20T03:49:37.097Z,4.00
2024-01-20T03:52:04.882Z,5.80
2024-01-20T03:54:32.878Z,6.50
2024-01-20T03:57:00.439Z,6.30
2024-01-20T03:59:28.065Z,6.20
2024-01-20T04:01:55.632Z,7.90
2024-01-20T04:04:23.444Z,7.50
2024-01-20T04:06:51.252Z,6.90
2024-01-20T04:09:18.993Z,7.90
2024-01-20T04:11:46.677Z,4.50
2024-01-20T04:14:14.250Z,6.90
2024-01-20T04:16:41.812Z,7.20
2024-01-20T04:19:09.850Z,6.40
2024-01-20T04:21:37.535Z,6.20
2024-01-20T04:24:05.114Z,5.90
2024-01-20T04:26:32.647Z,7.00
2024-01-20T04:29:00.216Z,6.70
2024-01-20T04:31:27.771Z,6.80
2024-01-20T04:33:55.422Z,6.20
2024-01-20T04:36:23.125Z,7.30
2024-01-20T04:38:50.860Z,6.30
2024-01-20T04:41:18.826Z,4.30
2024-01-20T04:43:46.384Z,6.50
2024-01-20T04:46:14.059Z,3.70
2024-01-20T04:48:41.735Z,4.60
2024-01-20T04:51:09.623Z,5.40
2024-01-20T04:53:37.228Z,6.60
2024-01-20T04:56:04.797Z,4.80
2024-01-20T04:58:32.351Z,6.00
2024-01-20T05:01:00.339Z,4.90
2024-01-20T05:03:28.159Z,6.00
2024-01-20T05:05:55.932Z,5.50
2024-01-20T05:08:23.716Z,5.40
2024-01-20T05:10:51.280Z,3.90
2024-01-20T05:13:18.937Z,5.00
2024-01-20T05:15:46.605Z,3.30
2024-01-20T05:18:14.255Z,5.20
2024-01-20T05:20:42.081Z,4.50
2024-01-20T05:23:09.798Z,4.50
2024-01-20T05:25:37.444Z,4.30
2024-01-20T05:28:05.017Z,4.70
2024-01-20T05:30:32.741Z,3.40
2024-01-20T05:33:00.574Z,4.10
2024-01-20T05:35:28.412Z,4.40
2024-01-20T05:37:55.961Z,5.00
2024-01-20T05:40:23.535Z,5.50
2024-01-20T05:42:51.484Z,6.80
2024-01-20T05:45:19.070Z,6.80
2024-01-20T05:47:46.822Z,6.20
2024-01-20T05:50:14.396Z,6.60
2024-01-20T05:52:42.041Z,5.50
2024-01-20T05:55:09.597Z,4.50
2024-01-20T05:57:37.202Z,4.40
2024-01-20T06:00:05.141Z,4.30
2024-01-20T06:02:32.885Z,3.50
2024-01-20T06:05:00.457Z,3.70
2024-01-20T06:07:28.105Z,4.40
2024-01-20T06:09:55.667Z,4.90
2024-01-20T06:12:23.260Z,4.10
2024-01-20T06:14:50.893Z,4.40
2024-01-20T06:17:18.453Z,5.10
2024-01-20T06:19:46.271Z,5.10
2024-01-20T06:22:13.677Z,5.30
2024-01-20T06:24:41.659Z,5.10
2024-01-20T06:27:09.229Z,5.70
2024-01-20T06:29:36.967Z,3.60
2024-01-20T06:32:04.628Z,3.80
2024-01-20T06:34:32.424Z,4.90
2024-01-20T06:37:00.050Z,4.10
2024-01-20T06:39:27.624Z,1.90
2024-01-20T06:41:55.292Z,4.60
2024-01-20T06:44:22.838Z,4.30
2024-01-20T06:46:50.745Z,6.50
2024-01-20T06:49:18.418Z,5.60
2024-01-20T06:51:46.135Z,5.90
2024-01-20T06:54:13.831Z,5.50
2024-01-20T06:56:41.442Z,4.70
2024-01-20T06:59:09.100Z,4.20
2024-01-20T07:01:36.671Z,4.50
2024-01-20T07:04:04.863Z,4.60
2024-01-20T07:06:32.831Z,3.40
2024-01-20T07:09:00.448Z,4.40
2024-01-20T07:11:28.245Z,4.20
2024-01-20T07:13:55.901Z,6.10
2024-01-20T07:16:23.457Z,6.40
2024-01-20T07:18:52.494Z,7.80
2024-01-20T07:21:21.428Z,8.50
2024-01-20T07:23:48.987Z,9.80
2024-01-20T07:26:16.555Z,12.00
2024-01-20T07:28:44.426Z,16.50
2024-01-20T07:31:11.988Z,13.20
2024-01-20T07:33:39.690Z,20.20
2024-01-20T07:36:07.326Z,45.50
2024-01-20T07:38:34.973Z,61.90
2024-01-20T07:41:02.532Z,64.70
2024-01-20T07:43:30.194Z,61.80
2024-01-20T07:45:57.863Z,45.80
2024-01-20T07:48:25.924Z,38.80
2024-01-20T07:50:53.595Z,23.60
2024-01-20T07:53:21.251Z,34.30
2024-01-20T07:55:48.907Z,27.50
2024-01-20T07:58:16.463Z,13.70
2024-01-20T08:00:44.141Z,14.00
2024-01-20T08:03:12.091Z,40.40
2024-01-20T08:05:39.784Z,23.20
2024-01-20T08:08:07.422Z,38.00
2024-01-20T08:10:34.984Z,23.00
2024-01-20T08:13:02.553Z,14.10
2024-01-20T08:15:30.559Z,10.20
2024-01-20T08:17:58.547Z,10.80
2024-01-20T08:20:26.243Z,10.40
2024-01-20T08:22:53.901Z,10.50
2024-01-20T08:25:21.475Z,10.20
2024-01-20T08:27:49.428Z,10.70
2024-01-20T08:30:17.276Z,9.80
2024-01-20T08:32:45.214Z,11.70
2024-01-20T08:35:12.968Z,7.70
2024-01-20T08:37:40.490Z,7.40
2024-01-20T08:40:08.153Z,7.30
2024-01-20T08:42:35.865Z,7.60
2024-01-20T08:45:03.632Z,11.30
2024-01-20T08:47:31.741Z,8.00
2024-01-20T08:49:59.311Z,7.70
2024-01-20T08:52:26.969Z,7.10
2024-01-20T08:54:54.830Z,11.50
2024-01-20T08:57:22.529Z,17.70
2024-01-20T08:59:50.057Z,13.90
2024-01-20T09:02:17.405Z,16.90
2024-01-20T09:04:45.068Z,14.40
2024-01-20T09:07:12.645Z,15.50
2024-01-20T09:09:40.509Z,15.50
2024-01-20T09:12:08.182Z,19.50
2024-01-20T09:14:35.820Z,16.00
2024-01-20T09:17:03.492Z,20.60
2024-01-20T09:19:31.139Z,12.90
2024-01-20T09:21:58.901Z,13.60
2024-01-20T09:24:26.471Z,10.90
2024-01-20T09:26:54.211Z,13.30
2024-01-20T09:29:21.876Z,9.50
2024-01-20T09:31:49.532Z,9.60
2024-01-20T09:34:17.638Z,8.60
2024-01-20T09:36:45.492Z,9.30
2024-01-20T09:39:13.089Z,11.60
2024-01-20T09:41:40.902Z,9.00
2024-01-20T09:44:08.448Z,10.70
2024-01-20T09:46:36.116Z,10.00
2024-01-20T09:49:03.768Z,9.40
2024-01-20T09:51:31.468Z,10.90
2024-01-20T09:53:59.601Z,13.70
2024-01-20T09:56:27.273Z,9.60
2024-01-20T09:58:54.923Z,11.40
2024-01-20T10:01:22.538Z,13.90
2024-01-20T10:03:50.399Z,10.60
2024-01-20T10:06:18.150Z,9.60
2024-01-20T10:08:45.775Z,10.90
2024-01-20T10:11:13.438Z,10.30
2024-01-20T10:13:41.102Z,12.10
2024-01-20T10:16:08.957Z,8.80
2024-01-20T10:18:36.678Z,12.80
2024-01-20T10:21:04.334Z,12.80
2024-01-20T10:23:32.156Z,9.90
2024-01-20T10:25:59.709Z,9.30
2024-01-20T10:28:27.281Z,6.00
2024-01-20T10:30:55.013Z,4.60
2024-01-20T10:33:22.809Z,4.20
2024-01-20T10:35:50.574Z,3.00
2024-01-20T10:38:18.573Z,4.70
2024-01-20T10:40:46.238Z,4.60
2024-01-20T10:43:13.770Z,4.60
2024-01-20T10:45:41.454Z,4.30
2024-01-20T10:48:12.051Z,3.80
2024-01-20T10:50:40.336Z,4.00
2024-01-20T10:53:07.910Z,3.80
2024-01-20T10:55:35.783Z,7.60
2024-01-20T10:58:03.331Z,7.60
2024-01-20T11:00:31.266Z,9.30
2024-01-20T11:02:59.014Z,8.80
2024-01-20T11:05:26.754Z,7.10
2024-01-20T11:07:54.298Z,5.40
2024-01-20T11:10:21.856Z,4.70
2024-01-20T11:12:49.415Z,4.70
2024-01-20T11:15:17.138Z,3.60
2024-01-20T11:17:45.184Z,4.10
2024-01-20T11:20:12.913Z,3.80
2024-01-20T11:22:40.475Z,4.70
2024-01-20T11:25:08.239Z,7.10
2024-01-20T11:27:35.964Z,6.00
2024-01-20T11:30:03.793Z,6.70
2024-01-20T11:32:31.623Z,6.20
2024-01-20T11:34:59.296Z,5.30
2024-01-20T11:37:26.855Z,4.70
2024-01-20T11:39:54.731Z,6.40
2024-01-20T11:42:22.393Z,5.10
2024-01-20T11:44:49.939Z,4.10
2024-01-20T11:47:17.505Z,3.70
2024-01-20T11:49:45.115Z,3.60
2024-01-20T11:52:12.510Z,3.60
2024-01-20T11:54:40.134Z,3.90
2024-01-20T11:57:07.954Z,3.90
2024-01-20T11:59:35.807Z,4.00
2024-01-20T12:02:03.388Z,3.00
2024-01-20T12:04:30.983Z,3.60
2024-01-20T12:06:58.711Z,3.40
2024-01-20T12:09:26.479Z,3.90
2024-01-20T12:11:54.112Z,3.80
2024-01-20T12:14:21.774Z,3.80
2024-01-20T12:16:49.339Z,3.10
2024-01-20T12:19:17.292Z,3.90
2024-01-20T12:21:44.968Z,4.10
2024-01-20T12:24:12.553Z,3.60
2024-01-20T12:26:40.091Z,3.90
2024-01-20T12:29:07.767Z,3.80
2024-01-20T12:31:35.310Z,3.90
2024-01-20T12:34:03.029Z,3.70
2024-01-20T12:36:30.636Z,4.30
2024-01-20T12:38:58.343Z,4.10
2024-01-20T12:41:26.055Z,4.40
2024-01-20T12:43:53.937Z,4.50
2024-01-20T12:46:21.585Z,4.50
2024-01-20T12:48:49.339Z,6.20
2024-01-20T12:51:17.153Z,4.80
2024-01-20T12:53:44.665Z,3.90
2024-01-20T12:56:12.227Z,5.80
2024-01-20T12:58:39.794Z,7.40
2024-01-20T13:01:07.472Z,5.80
2024-01-20T13:03:35.413Z,5.10
2024-01-20T13:06:03.792Z,4.60
2024-01-20T13:08:31.488Z,5.00
2024-01-20T13:10:59.126Z,5.10
2024-01-20T13:13:29.383Z,5.50
2024-01-20T13:15:57.523Z,6.30
2024-01-20T13:18:25.461Z,6.00
2024-01-20T13:20:53.252Z,6.50
2024-01-20T13:23:20.899Z,6.30
2024-01-20T13:25:48.906Z,9.70
2024-01-20T13:28:16.433Z,8.30
2024-01-20T13:30:44.194Z,9.20
2024-01-20T13:33:12.053Z,12.10
2024-01-20T13:35:39.721Z,15.60
2024-01-20T13:38:07.385Z,15.90
2024-01-20T13:40:34.948Z,13.20
2024-01-20T13:43:02.610Z,13.90
2024-01-20T13:45:30.305Z,12.90
2024-01-20T13:47:58.171Z,10.50
2024-01-20T13:50:26.217Z,11.70
2024-01-20T13:52:53.870Z,10.10
2024-01-20T13:55:21.428Z,9.30
2024-01-20T13:57:49.181Z,9.00
2024-01-20T14:00:16.906Z,7.70
2024-01-20T14:02:44.665Z,6.00
2024-01-20T14:05:12.590Z,6.30
2024-01-20T14:07:40.251Z,7.80
2024-01-20T14:10:07.817Z,4.90
2024-01-20T14:12:35.504Z,4.40
2024-01-20T14:15:03.372Z,4.50
2024-01-20T14:17:31.144Z,5.10
2024-01-20T14:19:59.034Z,4.40
2024-01-20T14:22:26.634Z,4.30
2024-01-20T14:24:54.299Z,4.90
2024-01-20T14:27:22.206Z,4.40
2024-01-20T14:29:49.833Z,4.10
2024-01-20T14:32:17.295Z,4.50
2024-01-20T14:34:44.987Z,4.10
2024-01-20T14:37:12.801Z,4.60
2024-01-20T14:39:40.619Z,4.80
2024-01-20T14:42:08.563Z,5.40
2024-01-20T14:44:36.100Z,6.30
2024-01-20T14:47:03.779Z,6.90
2024-01-20T14:49:31.440Z,8.10
2024-01-20T14:51:59.390Z,12.90
2024-01-20T14:54:27.112Z,16.30
2024-01-20T14:56:54.924Z,19.40
2024-01-20T14:59:22.812Z,18.90
2024-01-20T15:01:50.348Z,15.20
2024-01-20T15:04:18.446Z,14.30
2024-01-20T15:06:46.198Z,12.50
2024-01-20T15:09:13.915Z,6.90
2024-01-20T15:11:42.030Z,7.70
2024-01-20T15:14:09.679Z,5.50
2024-01-20T15:16:37.235Z,5.10
2024-01-20T15:19:04.929Z,5.10
2024-01-20T15:21:32.799Z,5.50
2024-01-20T15:24:00.671Z,9.10
2024-01-20T15:26:28.295Z,9.60
2024-01-20T15:28:55.972Z,12.70
2024-01-20T15:31:23.616Z,12.60
2024-01-20T15:33:51.546Z,17.10
2024-01-20T15:36:19.171Z,14.90
2024-01-20T15:38:47.061Z,20.40
2024-01-20T15:41:14.978Z,18.80
2024-01-20T15:43:42.745Z,15.30
2024-01-20T15:46:11.328Z,17.00
2024-01-20T15:48:39.107Z,15.30
2024-01-20T15:51:06.913Z,13.10
2024-01-20T15:53:34.524Z,13.20
2024-01-20T15:56:02.175Z,12.90
2024-01-20T15:58:29.730Z,11.50
2024-01-20T16:00:57.426Z,11.70
2024-01-20T16:03:25.451Z,12.90
2024-01-20T16:05:53.256Z,12.20
2024-01-20T16:08:20.791Z,10.40
2024-01-20T16:10:48.357Z,6.20
2024-01-20T16:13:16.321Z,3.90
2024-01-20T16:15:44.037Z,5.20
2024-01-20T16:18:12.015Z,5.50
2024-01-20T16:20:39.802Z,3.90
2024-01-20T16:23:07.677Z,4.20
2024-01-20T16:25:35.358Z,5.10
2024-01-20T16:28:02.907Z,5.80
2024-01-20T16:30:33.501Z,13.10
2024-01-20T16:33:01.280Z,18.40
2024-01-20T16:35:29.476Z,19.70
2024-01-20T16:37:57.232Z,12.70
2024-01-20T16:40:24.994Z,10.60
2024-01-20T16:42:52.650Z,9.80
2024-01-20T16:45:20.449Z,6.70
2024-01-20T16:47:48.228Z,6.60
2024-01-20T16:50:15.948Z,10.20
2024-01-20T16:52:43.505Z,13.10
2024-01-20T16:55:15.035Z,11.10
2024-01-20T16:57:44.019Z,14.90
2024-01-20T17:00:11.871Z,11.50
2024-01-20T17:02:39.584Z,9.20
2024-01-20T17:05:07.284Z,7.00
2024-01-20T17:07:35.128Z,7.60
2024-01-20T17:10:02.691Z,6.20
2024-01-20T17:12:30.358Z,5.90
2024-01-20T17:14:58.304Z,5.80
2024-01-20T17:17:25.889Z,7.00
2024-01-20T17:19:53.639Z,5.20
2024-01-20T17:22:21.091Z,9.00
2024-01-20T17:24:48.648Z,10.40
2024-01-20T17:27:16.243Z,7.70
2024-01-20T17:29:43.977Z,9.30
2024-01-20T17:32:11.530Z,5.60
2024-01-20T17:34:39.752Z,7.80
2024-01-20T17:37:07.468Z,6.50
2024-01-20T17:39:35.161Z,7.30
2024-01-20T17:42:03.112Z,6.30
2024-01-20T17:44:30.659Z,6.70
2024-01-20T17:46:58.208Z,5.30
2024-01-20T17:49:25.754Z,5.70
2024-01-20T17:51:53.575Z,5.30
2024-01-20T17:54:21.250Z,5.20
2024-01-20T17:56:48.958Z,5.40
2024-01-20T17:59:16.925Z,7.20
2024-01-20T18:01:44.540Z,5.30
2024-01-20T18:04:12.413Z,5.50
2024-01-20T18:06:40.190Z,5.20
2024-01-20T18:09:08.034Z,6.70
2024-01-20T18:11:35.646Z,5.80
2024-01-20T18:14:03.199Z,6.00
2024-01-20T18:16:30.765Z,4.90
2024-01-20T18:18:58.396Z,5.40
2024-01-20T18:21:26.510Z,7.90
2024-01-20T18:23:54.071Z,7.20
2024-01-20T18:26:21.727Z,8.70
2024-01-20T18:28:49.399Z,12.50
2024-01-20T18:31:17.048Z,10.50
2024-01-20T18:33:44.763Z,9.00
2024-01-20T18:36:12.492Z,10.50
2024-01-20T18:38:40.122Z,8.80
2024-01-20T18:41:07.714Z,13.40
2024-01-20T18:43:35.238Z,13.30
2024-01-20T18:46:02.693Z,10.00
2024-01-20T18:48:30.396Z,12.50
2024-01-20T18:50:58.223Z,9.10
2024-01-20T18:53:25.998Z,9.40
2024-01-20T18:55:53.901Z,7.30
2024-01-20T18:58:21.522Z,5.40
2024-01-20T19:00:49.564Z,6.20
2024-01-20T19:03:17.406Z,7.60
2024-01-20T19:05:45.131Z,5.30
2024-01-20T19:08:12.792Z,6.80
2024-01-20T19:10:40.348Z,6.60
2024-01-20T19:13:08.011Z,5.70
2024-01-20T19:15:35.585Z,6.80
2024-01-20T19:18:03.374Z,7.40
2024-01-20T19:20:31.205Z,7.20
2024-01-20T19:22:58.779Z,4.40
2024-01-20T19:25:26.423Z,4.80
2024-01-20T19:27:54.020Z,4.90
2024-01-20T19:30:21.843Z,4.50
2024-01-20T19:32:49.795Z,5.80
2024-01-20T19:35:17.595Z,5.50
2024-01-20T19:37:45.235Z,5.40
2024-01-20T19:40:12.798Z,7.80
2024-01-20T19:42:40.803Z,7.90
2024-01-20T19:45:08.451Z,11.70
2024-01-20T19:47:36.215Z,10.70
2024-01-20T19:50:03.758Z,13.40
2024-01-20T19:52:31.309Z,11.40
2024-01-20T19:54:58.876Z,11.00
2024-01-20T19:57:29.158Z,12.20
2024-01-20T19:59:56.960Z,12.10
2024-01-20T20:02:24.619Z,8.10
2024-01-20T20:04:52.227Z,7.00
2024-01-20T20:07:20.047Z,8.10
2024-01-20T20:09:47.733Z,6.10
2024-01-20T20:12:15.406Z,6.60
2024-01-20T20:14:42.943Z,5.50
2024-01-20T20:17:10.696Z,7.80
2024-01-20T20:19:38.501Z,6.50
2024-01-20T20:22:06.227Z,9.30
2024-01-20T20:24:34.151Z,8.50
2024-01-20T20:27:01.746Z,9.40
2024-01-20T20:29:29.739Z,8.20
2024-01-20T20:31:57.281Z,9.90
2024-01-20T20:34:25.031Z,9.60
2024-01-20T20:36:52.915Z,10.80
2024-01-20T20:39:20.687Z,12.20
2024-01-20T20:41:48.342Z,9.70
2024-01-20T20:44:15.998Z,8.90
2024-01-20T20:46:43.546Z,7.50
2024-01-20T20:49:11.876Z,7.60
2024-01-20T20:51:40.048Z,6.70
2024-01-20T20:54:07.796Z,7.00
2024-01-20T20:56:35.428Z,6.70
2024-01-20T20:59:02.995Z,6.50
2024-01-20T21:01:30.787Z,5.30
2024-01-20T21:03:58.607Z,4.50
2024-01-20T21:06:26.809Z,6.70
2024-01-20T21:08:54.562Z,5.00
2024-01-20T21:11:22.427Z,6.70
2024-01-20T21:13:50.305Z,5.50
2024-01-20T21:16:17.861Z,4.90
2024-01-20T21:18:45.631Z,6.00
2024-01-20T21:21:13.495Z,5.70
2024-01-20T21:23:41.045Z,4.90
2024-01-20T21:26:08.898Z,5.10
2024-01-20T21:28:36.569Z,6.40
2024-01-20T21:31:04.235Z,4.90
2024-01-20T21:33:32.036Z,5.40
2024-01-20T21:35:59.868Z,5.10
2024-01-20T21:38:27.522Z,6.00
2024-01-20T21:40:55.184Z,6.80
2024-01-20T21:43:22.852Z,4.40
2024-01-20T21:45:50.582Z,7.40
2024-01-20T21:48:18.343Z,4.80
2024-01-20T21:50:46.234Z,5.90
2024-01-20T21:53:13.798Z,5.50
2024-01-20T21:55:41.467Z,7.20
2024-01-20T21:58:09.032Z,6.20
2024-01-20T22:00:36.706Z,6.90
2024-01-20T22:03:04.285Z,6.00
2024-01-20T22:05:32.040Z,5.60
2024-01-20T22:07:59.588Z,6.20
2024-01-20T22:10:27.126Z,5.40
2024-01-20T22:12:54.708Z,6.90
2024-01-20T22:15:22.475Z,6.90
2024-01-20T22:17:50.027Z,8.00
2024-01-20T22:20:17.691Z,9.20
2024-01-20T22:22:45.225Z,8.00
2024-01-20T22:25:12.796Z,8.00
2024-01-20T22:27:40.376Z,9.20
2024-01-20T22:30:08.021Z,8.50
2024-01-20T22:32:35.890Z,10.30
2024-01-20T22:35:03.619Z,8.60
2024-01-20T22:37:31.595Z,10.70
2024-01-20T22:39:59.462Z,9.80
2024-01-20T22:42:26.855Z,7.70
2024-01-20T22:44:54.481Z,8.30
2024-01-20T22:47:22.139Z,9.20
2024-01-20T22:49:49.841Z,8.00
2024-01-20T22:52:17.666Z,5.80
2024-01-20T22:54:45.656Z,6.20
2024-01-20T22:57:13.548Z,5.20
2024-01-20T22:59:41.162Z,4.70
2024-01-20T23:02:08.725Z,5.10
2024-01-20T23:04:36.506Z,5.50
2024-01-20T23:07:04.264Z,4.50
2024-01-20T23:09:31.928Z,5.40
2024-01-20T23:11:59.582Z,4.40
2024-01-20T23:14:27.134Z,5.20
2024-01-20T23:16:54.832Z,4.50
2024-01-20T23:19:22.820Z,5.90
2024-01-20T23:21:50.464Z,5.50
2024-01-20T23:24:18.182Z,6.30
2024-01-20T23:26:45.967Z,5.90
2024-01-20T23:29:13.619Z,4.60
2024-01-20T23:31:41.211Z,6.10
2024-01-20T23:34:08.984Z,6.10
2024-01-20T23:36:36.732Z,5.00
2024-01-20T23:39:04.394Z,4.60
2024-01-20T23:41:32.233Z,6.20
2024-01-20T23:43:59.897Z,7.00
2024-01-20T23:46:27.460Z,5.50
2024-01-20T23:48:55.283Z,6.70
2024-01-20T23:51:23.022Z,6.40
2024-01-20T23:53:50.754Z,7.30
2024-01-20T23:56:18.308Z,8.30
2024-01-20T23:58:46.483Z,6.10
